createdAt,value
2023-05-10T00:00:55.651Z,95.76
2023-05-10T00:02:57.548Z,95.30
2023-05-10T00:04:59.250Z,96.14
2023-05-10T00:07:00.858Z,95.16
2023-05-10T00:09:02.460Z,95.62
2023-05-10T00:11:04.063Z,95.73
2023-05-10T00:13:05.676Z,95.70
2023-05-10T00:15:08.090Z,95.72
2023-05-10T00:17:09.704Z,96.13
2023-05-10T00:19:11.424Z,96.25
2023-05-10T00:21:13.239Z,95.87
2023-05-10T00:23:14.768Z,96.24
2023-05-10T00:25:16.416Z,95.88
2023-05-10T00:27:18.002Z,95.63
2023-05-10T00:29:20.548Z,96.35
2023-05-10T00:31:22.351Z,96.26
2023-05-10T00:33:24.088Z,95.76
2023-05-10T00:35:25.641Z,95.37
2023-05-10T00:37:27.256Z,95.71
2023-05-10T00:39:29.629Z,95.79
2023-05-10T00:41:33.710Z,95.57
2023-05-10T00:43:35.259Z,95.17
2023-05-10T00:45:38.141Z,95.63
2023-05-10T00:47:40.660Z,96.02
2023-05-10T00:49:42.725Z,95.03
2023-05-10T00:51:45.562Z,95.74
2023-05-10T00:53:47.484Z,95.84
2023-05-10T00:55:52.388Z,95.46
2023-05-10T00:57:54.926Z,95.91
2023-05-10T00:59:56.522Z,96.47
2023-05-10T01:01:59.312Z,96.27
2023-05-10T01:04:01.017Z,95.92
2023-05-10T01:06:02.920Z,95.95
2023-05-10T01:08:04.661Z,96.13
2023-05-10T01:10:10.207Z,95.92
2023-05-10T01:12:12.335Z,96.23
2023-05-10T01:14:14.520Z,96.07
2023-05-10T01:16:16.383Z,95.85
2023-05-10T01:18:21.631Z,95.98
2023-05-10T01:20:24.366Z,96.14
2023-05-10T01:22:32.207Z,96.34
2023-05-10T01:24:36.532Z,96.34
2023-05-10T01:26:44.076Z,96.03
2023-05-10T01:29:04.428Z,96.43
2023-05-10T01:31:31.811Z,96.09
2023-05-10T01:34:12.888Z,96.51
2023-05-10T01:36:20.464Z,96.24
2023-05-10T01:38:35.997Z,96.82
2023-05-10T01:40:43.680Z,96.65
2023-05-10T01:42:53.439Z,96.56
2023-05-10T01:45:01.152Z,96.81
2023-05-10T01:47:07.308Z,96.67
2023-05-10T01:49:19.954Z,96.32
2023-05-10T01:51:26.421Z,96.43
2023-05-10T01:53:28.921Z,96.13
2023-05-10T01:55:35.552Z,96.20
2023-05-10T01:57:40.602Z,96.37
2023-05-10T01:59:46.455Z,96.11
2023-05-10T02:01:49.865Z,96.39
2023-05-10T02:03:52.882Z,96.66
2023-05-10T02:05:56.162Z,96.93
2023-05-10T02:07:59.905Z,97.01
2023-05-10T02:10:02.726Z,96.23
2023-05-10T02:12:07.246Z,96.48
2023-05-10T02:14:11.326Z,96.53
2023-05-10T02:16:14.995Z,97.07
2023-05-10T02:18:17.874Z,97.52
2023-05-10T02:20:20.509Z,96.73
2023-05-10T02:22:23.355Z,96.95
2023-05-10T02:24:26.148Z,96.90
2023-05-10T02:26:28.659Z,96.75
2023-05-10T02:28:32.108Z,95.93
2023-05-10T02:30:35.790Z,96.41
2023-05-10T02:32:38.471Z,97.17
2023-05-10T02:34:41.781Z,96.53
2023-05-10T02:36:44.179Z,96.15
2023-05-10T02:38:47.448Z,95.99
2023-05-10T02:40:49.335Z,95.30
2023-05-10T02:42:53.476Z,96.15
2023-05-10T02:45:02.162Z,95.65
2023-05-10T02:47:04.584Z,95.65
2023-05-10T02:49:06.733Z,96.03
2023-05-10T02:51:09.160Z,95.08
2023-05-10T02:53:15.965Z,95.61
2023-05-10T02:55:20.192Z,95.02
2023-05-10T02:57:27.408Z,94.72
2023-05-10T02:59:29.076Z,94.76
2023-05-10T03:01:30.666Z,94.57
2023-05-10T03:03:32.091Z,94.27
2023-05-10T03:05:34.125Z,95.11
2023-05-10T03:07:36.344Z,94.73
2023-05-10T03:09:37.870Z,94.71
2023-05-10T03:11:57.779Z,94.83
2023-05-10T03:14:31.199Z,95.55
2023-05-10T03:16:47.971Z,95.04
2023-05-10T03:19:01.483Z,94.32
2023-05-10T03:21:07.155Z,94.85
2023-05-10T03:23:20.528Z,95.24
2023-05-10T03:25:23.879Z,94.76
2023-05-10T03:27:28.071Z,95.25
2023-05-10T03:29:31.789Z,95.27
2023-05-10T03:31:33.953Z,95.60
2023-05-10T03:33:35.634Z,95.88
2023-05-10T03:35:37.297Z,95.01
2023-05-10T03:37:39.112Z,95.81
2023-05-10T03:39:40.707Z,95.04
2023-05-10T03:41:42.499Z,95.19
2023-05-10T03:43:44.096Z,95.23
2023-05-10T03:45:45.634Z,95.24
2023-05-10T03:47:47.366Z,95.82
2023-05-10T03:49:48.943Z,95.35
2023-05-10T03:51:50.483Z,95.40
2023-05-10T03:53:52.178Z,95.23
2023-05-10T03:55:53.731Z,95.80
2023-05-10T03:57:55.271Z,96.00
2023-05-10T03:59:56.878Z,95.90
2023-05-10T04:01:58.435Z,95.86
2023-05-10T04:04:00.030Z,95.59
2023-05-10T04:06:08.574Z,96.40
2023-05-10T04:08:10.603Z,96.56
2023-05-10T04:10:12.795Z,95.83
2023-05-10T04:12:14.498Z,96.47
2023-05-10T04:14:16.209Z,96.00
2023-05-10T04:16:17.788Z,96.61
2023-05-10T04:18:19.397Z,96.03
2023-05-10T04:20:21.032Z,96.35
2023-05-10T04:22:22.650Z,97.29
2023-05-10T04:24:24.381Z,96.31
2023-05-10T04:26:26.638Z,96.70
2023-05-10T04:28:28.308Z,96.68
2023-05-10T04:30:30.300Z,96.01
2023-05-10T04:32:32.520Z,96.55
2023-05-10T04:34:35.211Z,96.72
2023-05-10T04:36:37.622Z,96.74
2023-05-10T04:38:39.409Z,96.21
2023-05-10T04:40:41.097Z,95.76
2023-05-10T04:42:42.640Z,96.70
2023-05-10T04:44:44.552Z,96.33
2023-05-10T04:46:47.290Z,96.77
2023-05-10T04:48:48.953Z,96.48
2023-05-10T04:50:50.511Z,96.85
2023-05-10T04:52:53.284Z,95.79
2023-05-10T04:54:54.934Z,96.69
2023-05-10T04:56:56.480Z,97.19
2023-05-10T04:58:57.975Z,97.04
2023-05-10T05:01:06.708Z,96.79
2023-05-10T05:03:08.298Z,96.17
2023-05-10T05:05:09.990Z,97.40
2023-05-10T05:07:11.751Z,96.32
2023-05-10T05:09:13.491Z,95.68
2023-05-10T05:11:15.030Z,95.99
2023-05-10T05:13:16.691Z,96.53
2023-05-10T05:15:18.276Z,95.85
2023-05-10T05:17:19.857Z,96.20
2023-05-10T05:19:21.717Z,95.90
2023-05-10T05:21:23.368Z,96.11
2023-05-10T05:23:25.846Z,95.69
2023-05-10T05:25:27.424Z,95.79
2023-05-10T05:27:29.123Z,95.80
2023-05-10T05:29:30.746Z,96.15
2023-05-10T05:31:32.377Z,96.07
2023-05-10T05:33:34.786Z,96.02
2023-05-10T05:35:36.331Z,96.33
2023-05-10T05:37:38.207Z,95.84
2023-05-10T05:39:39.735Z,96.15
2023-05-10T05:41:41.319Z,96.63
2023-05-10T05:43:42.812Z,95.77
2023-05-10T05:45:44.456Z,96.16
2023-05-10T05:47:46.214Z,96.09
2023-05-10T05:49:48.160Z,96.38
2023-05-10T05:51:51.279Z,96.59
2023-05-10T05:53:52.833Z,96.78
2023-05-10T05:55:58.936Z,96.38
2023-05-10T05:58:00.481Z,96.43
2023-05-10T06:00:02.358Z,96.10
2023-05-10T06:02:03.939Z,95.45
2023-05-10T06:04:05.570Z,95.48
2023-05-10T06:06:07.354Z,95.65
2023-05-10T06:08:08.968Z,95.42
2023-05-10T06:10:11.108Z,95.24
2023-05-10T06:12:12.909Z,94.80
2023-05-10T06:14:14.450Z,94.23
2023-05-10T06:16:15.981Z,94.77
2023-05-10T06:18:17.592Z,94.59
2023-05-10T06:20:19.357Z,95.09
2023-05-10T06:22:21.066Z,94.55
2023-05-10T06:24:22.820Z,94.69
2023-05-10T06:26:24.522Z,94.57
2023-05-10T06:28:26.079Z,95.59
2023-05-10T06:30:30.659Z,95.40
2023-05-10T06:32:32.270Z,94.28
2023-05-10T06:34:33.997Z,94.87
2023-05-10T06:36:35.525Z,93.94
2023-05-10T06:38:37.202Z,92.75
2023-05-10T06:40:42.641Z,93.42
2023-05-10T06:42:46.004Z,94.07
2023-05-10T06:44:47.626Z,94.84
2023-05-10T06:46:49.356Z,95.06
2023-05-10T06:48:50.956Z,92.95
2023-05-10T06:50:52.579Z,93.28
2023-05-10T06:52:54.253Z,93.12
2023-05-10T06:54:55.762Z,93.70
2023-05-10T06:56:57.373Z,93.88
2023-05-10T06:58:59.001Z,94.08
2023-05-10T07:01:06.927Z,93.08
2023-05-10T07:03:08.598Z,91.77
2023-05-10T07:05:10.195Z,92.72
2023-05-10T07:07:11.991Z,92.54
2023-05-10T07:09:14.462Z,92.44
2023-05-10T07:11:16.025Z,91.33
2023-05-10T07:13:17.709Z,91.61
2023-05-10T07:15:19.770Z,90.11
2023-05-10T07:17:21.416Z,90.13
2023-05-10T07:19:23.089Z,90.92
2023-05-10T07:21:29.668Z,91.23
2023-05-10T07:23:31.464Z,90.66
2023-05-10T07:25:32.969Z,90.46
2023-05-10T07:27:34.709Z,90.00
2023-05-10T07:29:37.164Z,87.26
2023-05-10T07:31:38.884Z,88.35
2023-05-10T07:33:40.937Z,89.71
2023-05-10T07:35:43.367Z,89.81
2023-05-10T07:37:44.869Z,88.40
2023-05-10T07:39:46.408Z,88.43
2023-05-10T07:41:47.994Z,90.48
2023-05-10T07:43:49.574Z,88.68
2023-05-10T07:45:51.620Z,87.89
2023-05-10T07:47:54.309Z,87.11
2023-05-10T07:49:56.306Z,86.37
2023-05-10T07:51:57.877Z,88.00
2023-05-10T07:53:59.604Z,88.08
2023-05-10T07:56:33.664Z,86.33
2023-05-10T07:58:35.310Z,86.37
2023-05-10T08:00:40.257Z,86.70
2023-05-10T08:02:42.157Z,83.00
2023-05-10T08:04:43.926Z,84.15
2023-05-10T08:06:45.727Z,82.59
2023-05-10T08:08:50.488Z,81.52
2023-05-10T08:10:52.084Z,81.99
2023-05-10T08:12:53.672Z,82.48
2023-05-10T08:14:55.256Z,84.14
2023-05-10T08:16:57.237Z,83.71
2023-05-10T08:18:58.955Z,83.85
2023-05-10T08:21:00.664Z,84.25
2023-05-10T08:23:02.247Z,82.01
2023-05-10T08:25:03.977Z,81.49
2023-05-10T08:27:09.129Z,83.45
2023-05-10T08:29:10.729Z,84.30
2023-05-10T08:31:12.928Z,83.24
2023-05-10T08:33:14.581Z,82.98
2023-05-10T08:35:17.128Z,82.64
2023-05-10T08:37:18.833Z,80.43
2023-05-10T08:39:29.921Z,79.55
2023-05-10T08:41:37.287Z,80.46
2023-05-10T08:43:40.053Z,81.56
2023-05-10T08:45:48.396Z,80.31
2023-05-10T08:47:50.994Z,81.19
2023-05-10T08:49:53.589Z,81.82
2023-05-10T08:51:57.143Z,78.69
2023-05-10T08:53:59.043Z,78.54
2023-05-10T08:56:02.032Z,77.38
2023-05-10T08:58:04.851Z,76.60
2023-05-10T09:00:07.484Z,76.39
2023-05-10T09:02:12.399Z,76.05
2023-05-10T09:04:14.202Z,77.29
2023-05-10T09:06:16.721Z,76.99
2023-05-10T09:08:18.700Z,77.37
2023-05-10T09:10:21.232Z,76.75
2023-05-10T09:12:23.760Z,76.94
2023-05-10T09:14:26.251Z,76.18
2023-05-10T09:16:27.899Z,76.81
2023-05-10T09:18:29.755Z,75.90
2023-05-10T09:20:32.087Z,75.47
2023-05-10T09:22:36.842Z,74.38
2023-05-10T09:24:43.392Z,73.71
2023-05-10T09:26:52.360Z,73.56
2023-05-10T09:28:58.937Z,73.33
2023-05-10T09:31:00.575Z,73.93
2023-05-10T09:33:02.417Z,73.61
2023-05-10T09:35:31.230Z,74.00
2023-05-10T09:37:32.857Z,73.94
2023-05-10T09:39:36.318Z,72.56
2023-05-10T09:41:37.873Z,72.49
2023-05-10T09:43:39.443Z,73.58
2023-05-10T09:45:42.327Z,71.48
2023-05-10T09:47:43.990Z,69.82
2023-05-10T09:49:51.112Z,69.06
2023-05-10T09:52:08.924Z,68.99
2023-05-10T09:54:16.017Z,69.91
2023-05-10T09:56:38.571Z,69.30
2023-05-10T09:58:40.645Z,70.58
2023-05-10T10:00:46.299Z,68.86
2023-05-10T10:02:55.247Z,71.07
2023-05-10T10:05:00.635Z,71.75
2023-05-10T10:07:06.193Z,69.22
2023-05-10T10:09:08.436Z,70.76
2023-05-10T10:11:10.016Z,70.10
2023-05-10T10:13:11.608Z,70.60
2023-05-10T10:15:15.262Z,69.07
2023-05-10T10:17:18.746Z,67.82
2023-05-10T10:19:24.180Z,67.84
2023-05-10T10:21:26.042Z,65.84
2023-05-10T10:23:28.428Z,67.08
2023-05-10T10:25:30.254Z,67.21
2023-05-10T10:27:52.836Z,67.63
2023-05-10T10:30:14.467Z,67.25
2023-05-10T10:32:37.633Z,65.76
2023-05-10T10:34:40.746Z,65.37
2023-05-10T10:36:45.880Z,66.81
2023-05-10T10:38:47.364Z,65.88
2023-05-10T10:40:49.086Z,66.11
2023-05-10T10:42:54.663Z,66.23
2023-05-10T10:45:13.298Z,67.63
2023-05-10T10:47:25.492Z,66.70
2023-05-10T10:49:28.004Z,66.69
2023-05-10T10:51:30.511Z,66.16
2023-05-10T10:53:33.085Z,67.03
2023-05-10T10:55:34.796Z,67.60
2023-05-10T10:57:42.470Z,67.21
2023-05-10T10:59:47.814Z,67.11
2023-05-10T11:01:52.980Z,68.11
2023-05-10T11:04:03.714Z,66.36
2023-05-10T11:06:05.436Z,66.12
2023-05-10T11:08:17.521Z,67.01
2023-05-10T11:10:25.236Z,65.80
2023-05-10T11:12:26.786Z,66.08
2023-05-10T11:14:28.454Z,67.65
2023-05-10T11:16:42.708Z,67.67
2023-05-10T11:19:08.676Z,67.10
2023-05-10T11:21:11.698Z,67.68
2023-05-10T11:23:16.816Z,69.46
2023-05-10T11:25:18.756Z,69.26
2023-05-10T11:27:21.438Z,68.77
2023-05-10T11:29:23.395Z,68.34
2023-05-10T11:31:27.612Z,67.11
2023-05-10T11:33:29.372Z,67.17
2023-05-10T11:35:30.928Z,68.10
2023-05-10T11:37:35.159Z,68.85
2023-05-10T11:39:36.768Z,67.75
2023-05-10T11:41:38.328Z,67.05
2023-05-10T11:43:40.918Z,67.12
2023-05-10T11:45:42.495Z,66.57
2023-05-10T11:47:44.623Z,66.18
2023-05-10T11:49:47.069Z,66.09
2023-05-10T11:51:48.706Z,66.36
2023-05-10T11:53:52.270Z,65.39
2023-05-10T11:55:54.106Z,65.17
2023-05-10T11:57:55.985Z,66.31
2023-05-10T11:59:58.433Z,66.23
2023-05-10T12:02:00.387Z,65.32
2023-05-10T12:04:02.363Z,65.04
2023-05-10T12:06:04.516Z,64.93
2023-05-10T12:08:16.411Z,64.00
2023-05-10T12:10:26.552Z,63.43
2023-05-10T12:12:28.036Z,64.96
2023-05-10T12:14:34.248Z,66.29
2023-05-10T12:16:36.896Z,66.06
2023-05-10T12:18:41.287Z,65.71
2023-05-10T12:20:43.469Z,65.79
2023-05-10T12:22:52.434Z,67.07
2023-05-10T12:24:53.994Z,67.13
2023-05-10T12:26:55.627Z,66.92
2023-05-10T12:29:13.833Z,67.25
2023-05-10T12:31:15.471Z,65.47
2023-05-10T12:33:18.997Z,65.64
2023-05-10T12:35:23.007Z,65.88
2023-05-10T12:37:28.548Z,65.24
2023-05-10T12:39:44.241Z,63.64
2023-05-10T12:41:45.762Z,64.10
2023-05-10T12:43:47.451Z,63.21
2023-05-10T12:45:49.840Z,63.65
2023-05-10T12:49:53.063Z,61.76
2023-05-10T12:51:54.590Z,63.42
2023-05-10T12:53:56.515Z,62.35
2023-05-10T12:55:58.434Z,62.58
2023-05-10T12:57:59.960Z,62.38
2023-05-10T13:00:01.515Z,63.13
2023-05-10T13:02:03.065Z,65.09
2023-05-10T13:04:04.617Z,64.84
2023-05-10T13:06:07.313Z,65.60
2023-05-10T13:08:08.854Z,65.00
2023-05-10T13:10:11.425Z,64.03
2023-05-10T13:12:12.979Z,63.00
2023-05-10T13:14:15.365Z,62.80
2023-05-10T13:16:16.913Z,62.60
2023-05-10T13:18:18.594Z,61.57
2023-05-10T13:20:20.514Z,61.36
2023-05-10T13:22:32.496Z,60.36
2023-05-10T13:24:41.100Z,60.82
2023-05-10T13:26:42.632Z,60.48
2023-05-10T13:28:44.700Z,60.12
2023-05-10T13:30:46.799Z,59.66
2023-05-10T13:32:48.399Z,59.14
2023-05-10T13:34:49.904Z,59.71
2023-05-10T13:36:51.667Z,58.31
2023-05-10T13:38:53.193Z,59.76
2023-05-10T13:40:54.738Z,58.53
2023-05-10T13:42:56.245Z,58.15
2023-05-10T13:44:57.992Z,59.49
2023-05-10T13:46:59.571Z,57.58
2023-05-10T13:49:01.086Z,57.16
2023-05-10T13:51:02.561Z,56.75
2023-05-10T13:53:04.101Z,58.17
2023-05-10T13:55:05.919Z,58.63
2023-05-10T13:57:07.741Z,57.34
2023-05-10T13:59:09.335Z,58.53
2023-05-10T14:01:11.072Z,56.88
2023-05-10T14:03:12.777Z,56.82
2023-05-10T14:05:14.476Z,55.95
2023-05-10T14:07:16.004Z,56.54
2023-05-10T14:09:17.642Z,57.54
2023-05-10T14:11:19.204Z,58.40
2023-05-10T14:13:20.748Z,57.78
2023-05-10T14:15:22.463Z,57.96
2023-05-10T14:17:24.095Z,58.88
2023-05-10T14:19:25.897Z,57.84
2023-05-10T14:21:27.633Z,58.52
2023-05-10T14:23:29.868Z,56.86
2023-05-10T14:25:31.611Z,56.60
2023-05-10T14:27:33.357Z,56.49
2023-05-10T14:29:34.929Z,54.13
2023-05-10T14:31:36.794Z,56.91
2023-05-10T14:33:38.375Z,55.57
2023-05-10T14:35:40.238Z,54.08
2023-05-10T14:37:41.825Z,54.62
2023-05-10T14:39:43.784Z,54.91
2023-05-10T14:41:46.749Z,53.74
2023-05-10T14:43:48.345Z,53.16
2023-05-10T14:45:49.945Z,53.15
2023-05-10T14:47:51.586Z,52.79
2023-05-10T14:49:53.149Z,50.43
2023-05-10T14:51:54.698Z,49.01
2023-05-10T14:53:56.327Z,48.32
2023-05-10T14:56:00.494Z,48.26
2023-05-10T14:58:03.832Z,47.24
2023-05-10T15:00:06.180Z,50.08
2023-05-10T15:02:09.402Z,51.17
2023-05-10T15:04:11.349Z,51.10
2023-05-10T15:06:16.006Z,50.31
2023-05-10T15:08:17.536Z,45.67
2023-05-10T15:10:19.398Z,39.72
2023-05-10T15:12:21.396Z,39.75
2023-05-10T15:14:23.677Z,37.93
2023-05-10T15:16:25.815Z,36.55
2023-05-10T15:18:27.432Z,33.89
2023-05-10T15:20:29.126Z,31.52
2023-05-10T15:22:34.322Z,29.67
2023-05-10T15:24:36.157Z,27.30
2023-05-10T15:26:37.737Z,26.30
2023-05-10T15:28:39.262Z,26.15
2023-05-10T15:30:40.764Z,23.35
2023-05-10T15:32:42.341Z,25.71
2023-05-10T15:34:43.930Z,33.05
2023-05-10T15:36:46.010Z,36.35
2023-05-10T15:38:47.586Z,38.29
2023-05-10T15:40:49.137Z,30.37
2023-05-10T15:42:50.683Z,35.73
2023-05-10T15:44:52.272Z,34.66
2023-05-10T15:46:53.824Z,33.90
2023-05-10T15:48:55.699Z,38.45
2023-05-10T15:50:57.238Z,39.12
2023-05-10T15:52:58.771Z,41.47
2023-05-10T15:55:00.355Z,37.59
2023-05-10T15:57:01.958Z,39.91
2023-05-10T15:59:03.906Z,41.03
2023-05-10T16:01:08.787Z,39.79
2023-05-10T16:03:10.430Z,35.76
2023-05-10T16:05:12.128Z,33.37
2023-05-10T16:07:13.670Z,34.33
2023-05-10T16:09:15.675Z,35.93
2023-05-10T16:11:17.308Z,36.13
2023-05-10T16:13:18.960Z,32.53
2023-05-10T16:15:21.878Z,30.19
2023-05-10T16:17:23.559Z,28.58
2023-05-10T16:19:25.937Z,26.17
2023-05-10T16:21:32.283Z,30.81
2023-05-10T16:23:33.870Z,37.73
2023-05-10T16:25:35.714Z,38.70
2023-05-10T16:27:37.326Z,38.60
2023-05-10T16:29:38.960Z,41.29
2023-05-10T16:31:40.495Z,41.96
2023-05-10T16:33:42.079Z,43.53
2023-05-10T16:35:43.951Z,44.33
2023-05-10T16:37:45.499Z,44.29
2023-05-10T16:39:47.114Z,45.91
2023-05-10T16:41:48.663Z,43.90
2023-05-10T16:43:50.538Z,45.90
2023-05-10T16:45:52.292Z,46.38
2023-05-10T16:47:53.924Z,45.12
2023-05-10T16:49:55.471Z,46.74
2023-05-10T16:51:57.003Z,48.03
2023-05-10T16:53:58.905Z,50.97
2023-05-10T16:56:00.827Z,51.32
2023-05-10T16:58:02.992Z,50.60
2023-05-10T17:00:05.307Z,50.55
2023-05-10T17:02:07.035Z,52.42
2023-05-10T17:04:08.704Z,51.45
2023-05-10T17:06:12.063Z,52.54
2023-05-10T17:08:13.608Z,52.13
2023-05-10T17:10:15.336Z,51.61
2023-05-10T17:12:17.167Z,52.04
2023-05-10T17:14:18.713Z,53.37
2023-05-10T17:16:21.333Z,54.99
2023-05-10T17:18:23.075Z,54.42
2023-05-10T17:20:24.605Z,54.50
2023-05-10T17:22:26.132Z,54.21
2023-05-10T17:24:29.726Z,55.82
2023-05-10T17:26:31.392Z,56.65
2023-05-10T17:28:32.893Z,56.92
2023-05-10T17:30:34.448Z,56.29
2023-05-10T17:32:36.054Z,56.52
2023-05-10T17:34:38.863Z,56.68
2023-05-10T17:36:41.578Z,57.50
2023-05-10T17:38:43.495Z,57.76
2023-05-10T17:40:45.027Z,58.92
2023-05-10T17:42:46.568Z,58.89
2023-05-10T17:44:48.176Z,58.88
2023-05-10T17:46:49.713Z,60.05
2023-05-10T17:48:51.315Z,61.11
2023-05-10T17:50:52.929Z,61.02
2023-05-10T17:52:54.474Z,62.04
2023-05-10T17:54:56.015Z,64.58
2023-05-10T17:56:58.173Z,64.56
2023-05-10T17:58:59.715Z,63.58
2023-05-10T18:01:01.314Z,64.44
2023-05-10T18:03:03.727Z,65.08
2023-05-10T18:05:05.820Z,66.49
2023-05-10T18:07:07.908Z,66.57
2023-05-10T18:09:09.621Z,67.20
2023-05-10T18:11:11.144Z,69.96
2023-05-10T18:13:12.698Z,71.33
2023-05-10T18:15:14.281Z,73.04
2023-05-10T18:17:15.930Z,74.76
2023-05-10T18:19:17.512Z,76.88
2023-05-10T18:21:19.171Z,75.54
2023-05-10T18:23:20.974Z,77.77
2023-05-10T18:25:22.542Z,79.13
2023-05-10T18:27:24.371Z,78.09
2023-05-10T18:29:26.300Z,78.60
2023-05-10T18:31:27.963Z,78.75
2023-05-10T18:33:29.555Z,78.73
2023-05-10T18:35:31.278Z,79.05
2023-05-10T18:37:33.334Z,81.03
2023-05-10T18:39:35.952Z,79.88
2023-05-10T18:41:37.667Z,80.84
2023-05-10T18:43:39.236Z,82.20
2023-05-10T18:45:40.779Z,80.13
2023-05-10T18:47:42.872Z,81.94
2023-05-10T18:49:46.204Z,81.41
2023-05-10T18:51:47.753Z,80.59
2023-05-10T18:53:49.465Z,82.57
2023-05-10T18:55:58.586Z,82.11
2023-05-10T18:58:00.415Z,83.10
2023-05-10T19:00:02.022Z,83.56
2023-05-10T19:02:04.639Z,84.00
2023-05-10T19:04:06.231Z,84.81
2023-05-10T19:06:07.896Z,84.81
2023-05-10T19:08:09.519Z,83.58
2023-05-10T19:10:13.065Z,86.02
2023-05-10T19:12:14.563Z,85.07
2023-05-10T19:14:16.309Z,84.08
2023-05-10T19:16:23.385Z,84.16
2023-05-10T19:18:26.341Z,86.18
2023-05-10T19:24:35.138Z,85.32
2023-05-10T19:26:36.894Z,87.34
2023-05-10T19:28:38.478Z,87.85
2023-05-10T19:30:40.049Z,88.29
2023-05-10T19:32:44.090Z,85.94
2023-05-10T19:34:45.764Z,87.75
2023-05-10T19:36:47.389Z,88.11
2023-05-10T19:38:49.074Z,86.97
2023-05-10T19:40:57.408Z,86.63
2023-05-10T19:43:00.345Z,87.41
2023-05-10T19:45:01.921Z,86.83
2023-05-10T19:47:05.165Z,86.34
2023-05-10T19:49:06.822Z,88.21
2023-05-10T19:51:10.268Z,87.25
2023-05-10T19:53:12.088Z,88.64
2023-05-10T19:55:25.142Z,88.83
2023-05-10T19:57:27.528Z,88.23
2023-05-10T19:59:29.128Z,86.75
2023-05-10T20:01:32.718Z,89.27
2023-05-10T20:03:35.346Z,88.04
2023-05-10T20:05:36.950Z,87.78
2023-05-10T20:07:38.484Z,88.17
2023-05-10T20:09:40.106Z,87.34
2023-05-10T20:11:41.665Z,88.14
2023-05-10T20:13:43.184Z,88.02
2023-05-10T20:15:45.650Z,88.83
2023-05-10T20:17:48.544Z,89.04
2023-05-10T20:19:50.290Z,90.25
2023-05-10T20:21:51.925Z,87.15
2023-05-10T20:23:53.547Z,88.70
2023-05-10T20:25:55.223Z,88.12
2023-05-10T20:27:56.852Z,89.77
2023-05-10T20:29:58.507Z,88.97
2023-05-10T20:32:00.303Z,88.67
2023-05-10T20:34:01.856Z,89.25
2023-05-10T20:36:03.845Z,88.05
2023-05-10T20:38:05.680Z,88.82
2023-05-10T20:40:07.972Z,88.38
2023-05-10T20:42:09.622Z,88.19
2023-05-10T20:44:11.191Z,88.16
2023-05-10T20:46:12.802Z,88.93
2023-05-10T20:48:14.500Z,88.38
2023-05-10T20:50:17.138Z,88.50
2023-05-10T20:52:18.959Z,89.51
2023-05-10T20:54:22.067Z,89.37
2023-05-10T20:56:24.056Z,88.21
2023-05-10T20:58:26.881Z,88.35
2023-05-10T21:00:28.451Z,90.17
2023-05-10T21:02:30.095Z,89.66
2023-05-10T21:04:32.031Z,89.78
2023-05-10T21:06:33.623Z,90.64
2023-05-10T21:08:35.176Z,89.64
2023-05-10T21:10:36.818Z,90.61
2023-05-10T21:12:38.443Z,90.59
2023-05-10T21:14:40.112Z,91.17
2023-05-10T21:16:41.830Z,91.82
2023-05-10T21:18:43.448Z,90.65
2023-05-10T21:20:45.001Z,90.97
2023-05-10T21:22:46.570Z,90.70
2023-05-10T21:24:48.200Z,89.06
2023-05-10T21:26:49.688Z,89.50
2023-05-10T21:28:51.511Z,89.86
2023-05-10T21:30:53.060Z,89.08
2023-05-10T21:32:59.505Z,90.35
2023-05-10T21:35:01.245Z,90.47
2023-05-10T21:37:02.783Z,90.59
2023-05-10T21:39:04.337Z,90.07
2023-05-10T21:41:08.758Z,88.52
2023-05-10T21:43:11.251Z,88.91
2023-05-10T21:45:12.987Z,89.26
2023-05-10T21:47:14.514Z,89.91
2023-05-10T21:49:16.043Z,90.55
2023-05-10T21:51:17.661Z,91.27
2023-05-10T21:53:19.709Z,90.27
2023-05-10T21:55:21.322Z,90.59
2023-05-10T21:57:22.926Z,90.10
2023-05-10T21:59:24.620Z,90.25
2023-05-10T22:01:26.238Z,90.78
2023-05-10T22:03:28.004Z,90.46
2023-05-10T22:05:29.853Z,90.63
2023-05-10T22:07:32.320Z,90.93
2023-05-10T22:09:33.837Z,91.78
2023-05-10T22:11:35.426Z,91.21
2023-05-10T22:13:36.921Z,91.86
2023-05-10T22:15:38.466Z,91.17
2023-05-10T22:17:40.588Z,90.67
2023-05-10T22:19:42.392Z,91.15
2023-05-10T22:21:44.007Z,91.75
2023-05-10T22:23:45.543Z,91.87
2023-05-10T22:25:47.049Z,92.45
2023-05-10T22:27:48.800Z,92.24
2023-05-10T22:29:50.306Z,91.81
2023-05-10T22:31:51.886Z,92.75
2023-05-10T22:33:53.379Z,91.31
2023-05-10T22:35:54.969Z,91.83
2023-05-10T22:37:56.582Z,92.25
2023-05-10T22:39:58.093Z,92.38
2023-05-10T22:41:59.669Z,92.46
2023-05-10T22:46:29.298Z,91.18
2023-05-10T22:48:34.100Z,91.22
2023-05-10T22:50:37.132Z,91.81
2023-05-10T22:52:39.420Z,92.09
2023-05-10T22:54:40.945Z,92.06
2023-05-10T22:56:42.659Z,92.30
2023-05-10T22:58:44.276Z,91.71
2023-05-10T23:00:45.806Z,91.46
2023-05-10T23:02:47.422Z,92.34
2023-05-10T23:04:49.261Z,92.55
2023-05-10T23:06:50.844Z,92.35
2023-05-10T23:08:52.410Z,93.12
2023-05-10T23:10:53.966Z,91.91
2023-05-10T23:12:56.120Z,92.73
2023-05-10T23:14:57.653Z,92.92
2023-05-10T23:16:59.206Z,92.79
2023-05-10T23:19:00.762Z,92.64
2023-05-10T23:21:02.412Z,93.93
2023-05-10T23:23:03.993Z,93.28
2023-05-10T23:25:06.014Z,93.57
2023-05-10T23:27:07.656Z,93.40
2023-05-10T23:29:09.214Z,93.06
2023-05-10T23:31:11.097Z,91.92
2023-05-10T23:33:14.255Z,93.47
2023-05-10T23:35:16.005Z,92.83
2023-05-10T23:37:17.552Z,93.00
2023-05-10T23:39:19.090Z,92.87
2023-05-10T23:41:20.647Z,92.70
2023-05-10T23:43:22.318Z,92.45
2023-05-10T23:45:23.861Z,92.78
2023-05-10T23:47:25.604Z,92.72
2023-05-10T23:49:27.358Z,92.47
2023-05-10T23:51:28.888Z,92.36
2023-05-10T23:53:30.612Z,92.87
2023-05-10T23:55:32.103Z,92.38
2023-05-10T23:57:33.672Z,93.21
2023-05-10T23:59:35.194Z,93.04
